createdAt,value
2023-01-07T00:01:40.422Z,8.44
2023-01-07T00:04:12.329Z,8.42
2023-01-07T00:06:43.406Z,8.41
2023-01-07T00:09:18.641Z,8.39
2023-01-07T00:11:46.435Z,8.36
2023-01-07T00:14:14.887Z,8.37
2023-01-07T00:16:43.052Z,8.31
2023-01-07T00:19:15.138Z,8.34
2023-01-07T00:21:43.608Z,8.40
2023-01-07T00:24:12.267Z,8.47
2023-01-07T00:26:41.087Z,8.30
2023-01-07T00:29:09.642Z,8.41
2023-01-07T00:31:40.258Z,8.36
2023-01-07T00:34:09.608Z,8.43
2023-01-07T00:36:42.682Z,8.35
2023-01-07T00:39:19.504Z,8.38
2023-01-07T00:42:08.692Z,8.28
2023-01-07T00:44:38.042Z,8.33
2023-01-07T00:47:05.827Z,8.31
2023-01-07T00:49:33.461Z,8.30
2023-01-07T00:52:01.061Z,8.44
2023-01-07T00:54:28.484Z,8.51
2023-01-07T00:56:56.129Z,8.51
2023-01-07T00:59:23.461Z,8.55
2023-01-07T01:01:51.237Z,8.53
2023-01-07T01:04:18.726Z,8.53
2023-01-07T01:06:46.609Z,8.40
2023-01-07T01:09:14.035Z,8.49
2023-01-07T01:11:42.284Z,8.48
2023-01-07T01:14:11.903Z,8.33
2023-01-07T01:16:39.725Z,8.37
2023-01-07T01:19:07.036Z,8.39
2023-01-07T01:21:34.681Z,8.40
2023-01-07T01:24:01.929Z,8.32
2023-01-07T01:26:29.559Z,8.32
2023-01-07T01:28:57.548Z,8.37
2023-01-07T01:31:25.574Z,8.39
2023-01-07T01:33:57.438Z,8.25
2023-01-07T01:36:25.349Z,8.31
2023-01-07T01:38:52.881Z,8.35
2023-01-07T01:41:20.671Z,8.37
2023-01-07T01:43:48.206Z,8.40
2023-01-07T01:46:28.375Z,8.40
2023-01-07T01:49:26.779Z,8.43
2023-01-07T01:52:08.680Z,8.40
2023-01-07T01:54:36.206Z,8.42
2023-01-07T01:57:09.056Z,8.30
2023-01-07T01:59:42.224Z,8.35
2023-01-07T02:02:10.313Z,8.38
2023-01-07T02:04:38.604Z,8.38
2023-01-07T02:07:15.153Z,8.28
2023-01-07T02:09:42.503Z,8.24
2023-01-07T02:12:16.118Z,8.30
2023-01-07T02:15:17.643Z,8.35
2023-01-07T02:18:17.024Z,8.45
2023-01-07T02:21:09.255Z,8.48
2023-01-07T02:24:30.250Z,8.51
2023-01-07T02:27:42.777Z,8.59
2023-01-07T02:30:19.803Z,8.70
2023-01-07T02:33:20.668Z,8.77
2023-01-07T02:36:32.606Z,8.73
2023-01-07T02:39:07.565Z,8.77
2023-01-07T02:42:08.822Z,8.72
2023-01-07T02:44:52.139Z,8.79
2023-01-07T02:47:34.362Z,8.75
2023-01-07T02:50:02.192Z,8.71
2023-01-07T02:52:33.914Z,8.67
2023-01-07T02:55:17.963Z,8.61
2023-01-07T02:58:15.416Z,8.54
2023-01-07T03:01:22.287Z,8.55
2023-01-07T03:04:32.805Z,8.55
2023-01-07T03:07:56.361Z,8.46
2023-01-07T03:10:39.374Z,8.45
2023-01-07T03:13:22.976Z,8.35
2023-01-07T03:16:05.959Z,8.25
2023-01-07T03:18:44.364Z,8.16
2023-01-07T03:21:18.023Z,8.11
2023-01-07T03:23:52.809Z,8.02
2023-01-07T03:26:27.057Z,7.99
2023-01-07T03:28:58.266Z,7.92
2023-01-07T03:31:28.718Z,7.78
2023-01-07T03:34:12.450Z,7.67
2023-01-07T03:36:49.773Z,7.71
2023-01-07T03:39:19.926Z,7.69
2023-01-07T03:42:09.306Z,7.73
2023-01-07T03:44:37.199Z,7.73
2023-01-07T03:47:06.021Z,7.75
2023-01-07T03:49:36.966Z,7.72
2023-01-07T03:52:04.883Z,7.71
2023-01-07T03:54:32.309Z,7.64
2023-01-07T03:57:00.094Z,7.61
2023-01-07T03:59:27.451Z,7.67
2023-01-07T04:01:55.149Z,7.53
2023-01-07T04:04:22.698Z,7.56
2023-01-07T04:06:50.259Z,7.58
2023-01-07T04:09:22.037Z,7.57
2023-01-07T04:11:49.645Z,7.58
2023-01-07T04:14:17.039Z,7.60
2023-01-07T04:16:44.704Z,7.68
2023-01-07T04:19:12.142Z,7.77
2023-01-07T04:21:39.761Z,7.82
2023-01-07T04:24:07.823Z,7.66
2023-01-07T04:26:35.706Z,7.73
2023-01-07T04:29:03.031Z,7.66
2023-01-07T04:31:30.713Z,7.63
2023-01-07T04:33:58.211Z,7.60
2023-01-07T04:36:26.023Z,7.55
2023-01-07T04:38:53.419Z,7.55
2023-01-07T04:41:21.278Z,7.57
2023-01-07T04:43:48.717Z,7.59
2023-01-07T04:46:16.448Z,7.52
2023-01-07T04:48:43.844Z,7.58
2023-01-07T04:51:11.458Z,7.59
2023-01-07T04:53:38.819Z,7.59
2023-01-07T04:56:06.992Z,7.49
2023-01-07T04:58:34.733Z,7.49
2023-01-07T05:01:07.182Z,7.52
2023-01-07T05:03:34.818Z,7.45
2023-01-07T05:06:03.304Z,7.47
2023-01-07T05:08:30.816Z,7.42
2023-01-07T05:10:58.563Z,7.53
2023-01-07T05:13:25.956Z,7.64
2023-01-07T05:15:53.815Z,7.71
2023-01-07T05:18:21.097Z,7.76
2023-01-07T05:20:48.750Z,7.79
2023-01-07T05:23:16.061Z,7.83
2023-01-07T05:25:43.715Z,7.78
2023-01-07T05:28:12.343Z,7.87
2023-01-07T05:30:40.367Z,7.92
2023-01-07T05:33:08.111Z,7.94
2023-01-07T05:35:36.445Z,7.98
2023-01-07T05:38:04.701Z,7.96
2023-01-07T05:40:32.408Z,7.85
2023-01-07T05:42:59.681Z,7.92
2023-01-07T05:45:27.344Z,7.97
2023-01-07T05:47:54.630Z,8.03
2023-01-07T05:50:22.295Z,7.99
2023-01-07T05:52:52.153Z,8.00
2023-01-07T05:55:19.825Z,8.05
2023-01-07T05:57:47.198Z,7.98
2023-01-07T06:00:15.583Z,7.96
2023-01-07T06:02:43.056Z,8.06
2023-01-07T06:05:11.297Z,7.97
2023-01-07T06:07:39.107Z,7.99
2023-01-07T06:10:07.329Z,8.03
2023-01-07T06:12:34.632Z,8.06
2023-01-07T06:15:02.418Z,8.03
2023-01-07T06:17:29.816Z,8.05
2023-01-07T06:19:57.474Z,8.10
2023-01-07T06:22:24.817Z,8.09
2023-01-07T06:24:52.490Z,8.02
2023-01-07T06:27:19.813Z,8.08
2023-01-07T06:29:47.441Z,8.12
2023-01-07T06:32:14.738Z,8.12
2023-01-07T06:34:42.325Z,8.08
2023-01-07T06:37:10.403Z,8.15
2023-01-07T06:39:37.972Z,8.16
2023-01-07T06:42:05.521Z,8.20
2023-01-07T06:44:33.220Z,8.21
2023-01-07T06:47:00.653Z,8.15
2023-01-07T06:49:28.304Z,8.05
2023-01-07T06:51:55.611Z,7.95
2023-01-07T06:54:23.241Z,7.84
2023-01-07T06:56:50.513Z,7.78
2023-01-07T06:59:18.120Z,7.81
2023-01-07T07:01:46.686Z,7.74
2023-01-07T07:04:14.491Z,7.73
2023-01-07T07:06:41.777Z,7.79
2023-01-07T07:09:09.516Z,7.90
2023-01-07T07:11:36.954Z,7.93
2023-01-07T07:14:06.442Z,7.92
2023-01-07T07:16:35.974Z,8.00
2023-01-07T07:19:03.643Z,7.98
2023-01-07T07:21:31.057Z,7.91
2023-01-07T07:24:00.642Z,7.76
2023-01-07T07:26:27.955Z,7.83
2023-01-07T07:28:55.557Z,7.92
2023-01-07T07:31:23.026Z,7.99
2023-01-07T07:33:50.757Z,8.04
2023-01-07T07:36:18.092Z,7.94
2023-01-07T07:38:45.715Z,7.97
2023-01-07T07:41:13.408Z,8.03
2023-01-07T07:43:41.131Z,8.03
2023-01-07T07:46:08.794Z,8.03
2023-01-07T07:48:36.494Z,8.12
2023-01-07T07:51:04.089Z,8.12
2023-01-07T07:53:32.524Z,8.34
2023-01-07T07:56:00.055Z,8.45
2023-01-07T07:58:27.885Z,8.43
2023-01-07T08:00:55.391Z,8.50
2023-01-07T08:03:24.070Z,8.38
2023-01-07T08:05:51.631Z,8.52
2023-01-07T08:08:19.336Z,8.50
2023-01-07T08:10:46.792Z,8.63
2023-01-07T08:13:14.509Z,8.66
2023-01-07T08:15:41.820Z,8.68
2023-01-07T08:18:10.561Z,8.72
2023-01-07T08:20:39.116Z,8.65
2023-01-07T08:23:09.199Z,8.75
2023-01-07T08:25:36.813Z,8.86
2023-01-07T08:28:05.063Z,8.84
2023-01-07T08:30:32.816Z,8.98
2023-01-07T08:33:03.469Z,8.90
2023-01-07T08:35:30.845Z,9.06
2023-01-07T08:38:08.021Z,9.27
2023-01-07T08:40:37.537Z,9.25
2023-01-07T08:43:08.580Z,9.48
2023-01-07T08:45:36.657Z,9.64
2023-01-07T08:48:05.315Z,9.99
2023-01-07T08:50:34.282Z,10.90
2023-01-07T08:53:01.985Z,13.37
2023-01-07T08:55:29.350Z,15.32
2023-01-07T08:57:57.256Z,17.52
2023-01-07T09:00:25.646Z,18.93
2023-01-07T09:02:53.329Z,20.03
2023-01-07T09:05:20.780Z,20.76
2023-01-07T09:07:53.510Z,22.26
2023-01-07T09:10:21.530Z,23.25
2023-01-07T09:12:50.057Z,23.32
2023-01-07T09:15:17.889Z,24.01
2023-01-07T09:17:45.902Z,25.34
2023-01-07T09:20:13.750Z,25.60
2023-01-07T09:22:41.454Z,25.59
2023-01-07T09:25:09.864Z,26.68
2023-01-07T09:27:38.585Z,25.60
2023-01-07T09:30:08.138Z,25.91
2023-01-07T09:32:35.876Z,25.55
2023-01-07T09:35:04.403Z,27.02
2023-01-07T09:37:32.427Z,27.86
2023-01-07T09:40:01.303Z,28.40
2023-01-07T09:42:37.688Z,28.87
2023-01-07T09:45:27.467Z,27.84
2023-01-07T09:48:01.298Z,28.48
2023-01-07T09:50:39.636Z,27.88
2023-01-07T09:53:21.060Z,27.58
2023-01-07T09:56:11.294Z,28.67
2023-01-07T09:58:44.594Z,28.88
2023-01-07T10:01:29.214Z,28.55
2023-01-07T10:03:59.933Z,28.60
2023-01-07T10:07:11.024Z,30.15
2023-01-07T10:10:05.698Z,31.05
2023-01-07T10:13:00.587Z,31.71
2023-01-07T10:16:15.870Z,30.47
2023-01-07T10:19:12.454Z,30.61
2023-01-07T10:22:16.487Z,31.01
2023-01-07T10:24:53.036Z,29.33
2023-01-07T10:27:35.673Z,29.33
2023-01-07T10:30:12.159Z,29.44
2023-01-07T10:32:40.389Z,30.06
2023-01-07T10:35:19.265Z,29.93
2023-01-07T10:37:47.428Z,29.92
2023-01-07T10:40:39.065Z,29.68
2023-01-07T10:43:43.726Z,30.86
2023-01-07T10:46:35.561Z,30.72
2023-01-07T10:49:45.152Z,32.44
2023-01-07T10:52:38.519Z,31.21
2023-01-07T10:55:29.446Z,33.27
2023-01-07T10:57:57.085Z,30.77
2023-01-07T11:00:26.175Z,30.58
2023-01-07T11:02:58.842Z,30.07
2023-01-07T11:05:37.530Z,29.33
2023-01-07T11:08:22.807Z,27.56
2023-01-07T11:10:51.147Z,28.47
2023-01-07T11:13:33.223Z,31.57
2023-01-07T11:16:17.887Z,32.90
2023-01-07T11:19:09.786Z,32.99
2023-01-07T11:21:48.812Z,34.55
2023-01-07T11:24:35.872Z,35.62
2023-01-07T11:27:19.095Z,35.51
2023-01-07T11:30:10.936Z,33.98
2023-01-07T11:32:41.002Z,34.20
2023-01-07T11:35:23.845Z,33.06
2023-01-07T11:37:51.836Z,33.99
2023-01-07T11:40:28.367Z,33.53
2023-01-07T11:42:58.621Z,34.12
2023-01-07T11:45:35.493Z,34.05
2023-01-07T11:48:09.986Z,33.10
2023-01-07T11:50:59.624Z,31.14
2023-01-07T11:53:49.989Z,31.87
2023-01-07T11:56:20.193Z,31.24
2023-01-07T11:58:51.833Z,33.14
2023-01-07T12:01:24.373Z,33.02
2023-01-07T12:03:52.180Z,33.23
2023-01-07T12:06:20.495Z,34.30
2023-01-07T12:09:25.876Z,34.58
2023-01-07T12:11:57.918Z,31.63
2023-01-07T12:14:28.631Z,33.52
2023-01-07T12:17:10.187Z,33.23
2023-01-07T12:19:51.731Z,32.65
2023-01-07T12:23:09.339Z,32.50
2023-01-07T12:26:01.301Z,32.32
2023-01-07T12:29:07.515Z,31.21
2023-01-07T12:32:15.671Z,30.59
2023-01-07T12:35:14.999Z,30.32
2023-01-07T12:38:34.166Z,31.11
2023-01-07T12:41:11.811Z,32.27
2023-01-07T12:44:03.062Z,31.88
2023-01-07T12:46:43.697Z,31.61
2023-01-07T12:49:21.852Z,32.56
2023-01-07T12:52:27.645Z,32.62
2023-01-07T12:55:04.635Z,33.18
2023-01-07T12:57:38.967Z,32.98
2023-01-07T13:00:32.008Z,31.76
2023-01-07T13:03:19.132Z,29.49
2023-01-07T13:06:00.051Z,30.71
2023-01-07T13:08:54.816Z,29.84
2023-01-07T13:11:52.700Z,30.67
2023-01-07T13:14:32.171Z,31.19
2023-01-07T13:17:21.487Z,32.19
2023-01-07T13:19:48.872Z,32.46
2023-01-07T13:22:56.600Z,33.00
2023-01-07T13:25:53.138Z,33.14
2023-01-07T13:29:05.243Z,33.66
2023-01-07T13:32:23.157Z,31.61
2023-01-07T13:35:05.381Z,32.95
2023-01-07T13:37:55.195Z,33.21
2023-01-07T13:41:02.800Z,32.41
2023-01-07T13:44:18.185Z,32.18
2023-01-07T13:46:47.953Z,32.37
2023-01-07T13:49:30.076Z,30.22
2023-01-07T13:52:22.095Z,27.53
2023-01-07T13:54:49.524Z,25.59
2023-01-07T13:57:39.579Z,24.52
2023-01-07T14:00:45.724Z,26.24
2023-01-07T14:03:28.422Z,26.92
2023-01-07T14:06:20.786Z,25.26
2023-01-07T14:09:05.688Z,23.28
2023-01-07T14:11:33.058Z,21.91
2023-01-07T14:14:38.656Z,20.40
2023-01-07T14:17:33.180Z,20.62
2023-01-07T14:20:25.797Z,21.77
2023-01-07T14:23:31.809Z,22.20
2023-01-07T14:26:22.861Z,22.40
2023-01-07T14:29:19.626Z,22.98
2023-01-07T14:31:47.671Z,23.29
2023-01-07T14:34:26.869Z,23.26
2023-01-07T14:37:05.099Z,22.64
2023-01-07T14:39:37.961Z,22.37
2023-01-07T14:42:21.066Z,21.77
2023-01-07T14:44:50.932Z,21.03
2023-01-07T14:47:43.561Z,19.65
2023-01-07T14:50:47.237Z,18.64
2023-01-07T14:53:51.129Z,17.83
2023-01-07T14:56:43.807Z,17.02
2023-01-07T14:59:46.246Z,16.29
2023-01-07T15:02:59.217Z,15.59
2023-01-07T15:05:26.914Z,15.11
2023-01-07T15:08:23.189Z,14.77
2023-01-07T15:11:14.107Z,14.32
2023-01-07T15:14:10.441Z,13.90
2023-01-07T15:16:39.277Z,13.70
2023-01-07T15:19:09.657Z,13.52
2023-01-07T15:21:51.992Z,13.29
2023-01-07T15:24:37.704Z,13.02
2023-01-07T15:27:33.681Z,12.89
2023-01-07T15:30:21.075Z,12.55
2023-01-07T15:33:02.958Z,12.44
2023-01-07T15:35:44.955Z,12.18
2023-01-07T15:38:35.042Z,12.10
2023-01-07T15:41:02.885Z,11.98
2023-01-07T15:43:31.891Z,11.92
2023-01-07T15:46:06.413Z,11.68
2023-01-07T15:48:34.394Z,11.63
2023-01-07T15:51:01.778Z,11.50
2023-01-07T15:53:30.547Z,11.50
2023-01-07T15:56:15.006Z,11.27
2023-01-07T15:58:51.180Z,11.16
2023-01-07T16:01:23.388Z,10.99
2023-01-07T16:03:56.815Z,10.91
2023-01-07T16:06:34.965Z,10.82
2023-01-07T16:09:18.647Z,10.71
2023-01-07T16:11:46.249Z,10.58
2023-01-07T16:14:26.801Z,10.45
2023-01-07T16:17:27.437Z,10.37
2023-01-07T16:20:29.828Z,10.33
2023-01-07T16:23:24.283Z,10.33
2023-01-07T16:26:13.358Z,10.31
2023-01-07T16:28:49.831Z,10.26
2023-01-07T16:31:22.783Z,10.24
2023-01-07T16:33:55.916Z,10.15
2023-01-07T16:36:30.979Z,10.06
2023-01-07T16:39:07.728Z,10.00
2023-01-07T16:41:35.632Z,9.98
2023-01-07T16:44:03.411Z,9.82
2023-01-07T16:46:43.009Z,9.72
2023-01-07T16:49:22.370Z,9.68
2023-01-07T16:52:14.195Z,9.65
2023-01-07T16:54:44.767Z,9.54
2023-01-07T16:57:12.395Z,9.50
2023-01-07T16:59:53.695Z,9.37
2023-01-07T17:02:53.876Z,9.36
2023-01-07T17:05:28.324Z,9.31
2023-01-07T17:08:07.068Z,9.23
2023-01-07T17:10:38.833Z,9.10
2023-01-07T17:13:15.818Z,8.99
2023-01-07T17:15:44.168Z,9.05
2023-01-07T17:18:11.723Z,8.96
2023-01-07T17:20:49.086Z,9.00
2023-01-07T17:23:28.535Z,8.94
2023-01-07T17:26:02.861Z,8.96
2023-01-07T17:28:45.862Z,8.98
2023-01-07T17:31:13.337Z,8.95
2023-01-07T17:33:42.580Z,8.89
2023-01-07T17:36:25.335Z,8.78
2023-01-07T17:38:53.857Z,8.80
2023-01-07T17:41:42.005Z,8.84
2023-01-07T17:44:13.003Z,8.79
2023-01-07T17:46:41.592Z,8.77
2023-01-07T17:49:11.631Z,8.79
2023-01-07T17:51:48.650Z,8.70
2023-01-07T17:54:24.220Z,8.73
2023-01-07T17:56:52.642Z,8.63
2023-01-07T17:59:23.483Z,8.60
2023-01-07T18:01:55.161Z,8.62
2023-01-07T18:04:23.268Z,8.50
2023-01-07T18:06:50.588Z,8.44
2023-01-07T18:09:18.187Z,8.51
2023-01-07T18:12:05.658Z,8.48
2023-01-07T18:14:33.432Z,8.39
2023-01-07T18:17:00.879Z,8.34
2023-01-07T18:19:28.595Z,8.35
2023-01-07T18:21:55.986Z,8.28
2023-01-07T18:24:23.726Z,8.29
2023-01-07T18:26:51.138Z,8.27
2023-01-07T18:29:18.776Z,8.26
2023-01-07T18:31:46.528Z,8.26
2023-01-07T18:34:15.985Z,8.24
2023-01-07T18:36:43.727Z,8.13
2023-01-07T18:39:19.408Z,8.18
2023-01-07T18:41:50.709Z,8.18
2023-01-07T18:44:19.904Z,8.07
2023-01-07T18:46:47.531Z,8.13
2023-01-07T18:49:15.605Z,8.07
2023-01-07T18:51:44.984Z,8.06
2023-01-07T18:54:12.680Z,8.01
2023-01-07T18:56:40.799Z,8.01
2023-01-07T18:59:08.585Z,7.93
2023-01-07T19:01:35.980Z,7.90
2023-01-07T19:04:05.214Z,7.85
2023-01-07T19:06:33.217Z,7.71
2023-01-07T19:09:00.984Z,7.72
2023-01-07T19:11:28.443Z,7.63
2023-01-07T19:13:56.219Z,7.71
2023-01-07T19:16:23.762Z,7.71
2023-01-07T19:18:53.216Z,7.71
2023-01-07T19:21:21.548Z,7.75
2023-01-07T19:23:49.373Z,7.71
2023-01-07T19:26:16.979Z,7.64
2023-01-07T19:28:44.821Z,7.64
2023-01-07T19:31:12.685Z,7.57
2023-01-07T19:33:40.831Z,7.42
2023-01-07T19:36:12.514Z,7.34
2023-01-07T19:38:43.589Z,7.38
2023-01-07T19:41:15.071Z,7.36
2023-01-07T19:43:43.497Z,7.32
2023-01-07T19:46:13.103Z,7.29
2023-01-07T19:48:41.627Z,7.23
2023-01-07T19:51:10.656Z,7.29
2023-01-07T19:53:39.644Z,7.25
2023-01-07T19:56:12.729Z,7.25
2023-01-07T19:58:42.139Z,7.18
2023-01-07T20:01:14.615Z,7.15
2023-01-07T20:03:43.701Z,7.17
2023-01-07T20:06:24.990Z,7.11
2023-01-07T20:08:55.222Z,7.06
2023-01-07T20:11:24.118Z,7.00
2023-01-07T20:13:51.858Z,7.02
2023-01-07T20:16:23.985Z,6.89
2023-01-07T20:18:54.961Z,6.91
2023-01-07T20:21:26.367Z,6.86
2023-01-07T20:23:54.689Z,6.78
2023-01-07T20:26:26.365Z,6.75
2023-01-07T20:28:55.488Z,6.73
2023-01-07T20:31:25.332Z,6.77
2023-01-07T20:33:55.920Z,6.78
2023-01-07T20:36:27.720Z,6.73
2023-01-07T20:38:56.916Z,6.68
2023-01-07T20:41:27.507Z,6.64
2023-01-07T20:44:01.813Z,6.47
2023-01-07T20:46:30.818Z,6.57
2023-01-07T20:48:59.244Z,6.53
2023-01-07T20:51:27.588Z,6.45
2023-01-07T20:53:55.484Z,6.40
2023-01-07T20:56:24.734Z,6.32
2023-01-07T20:58:52.782Z,6.38
2023-01-07T21:01:21.908Z,6.33
2023-01-07T21:03:50.078Z,6.39
2023-01-07T21:06:19.761Z,6.38
2023-01-07T21:08:49.570Z,6.47
2023-01-07T21:11:20.801Z,6.61
2023-01-07T21:13:50.401Z,6.68
2023-01-07T21:16:19.011Z,6.77
2023-01-07T21:18:47.211Z,6.76
2023-01-07T21:21:23.729Z,6.89
2023-01-07T21:23:53.524Z,6.95
2023-01-07T21:26:22.217Z,7.06
2023-01-07T21:28:56.072Z,7.15
2023-01-07T21:31:25.661Z,7.19
2023-01-07T21:33:58.351Z,7.27
2023-01-07T21:36:28.125Z,7.09
2023-01-07T21:38:58.936Z,7.09
2023-01-07T21:41:28.376Z,7.03
2023-01-07T21:43:56.584Z,7.14
2023-01-07T21:46:24.398Z,7.12
2023-01-07T21:48:52.159Z,7.09
2023-01-07T21:51:27.981Z,7.09
2023-01-07T21:53:58.043Z,7.06
2023-01-07T21:56:30.614Z,7.20
2023-01-07T21:58:59.326Z,7.18
2023-01-07T22:01:28.818Z,7.19
2023-01-07T22:03:59.060Z,7.22
2023-01-07T22:06:32.972Z,7.24
2023-01-07T22:09:06.778Z,7.31
2023-01-07T22:11:38.736Z,7.35
2023-01-07T22:14:06.496Z,7.23
2023-01-07T22:16:34.412Z,7.27
2023-01-07T22:19:02.148Z,7.23
2023-01-07T22:21:30.994Z,7.31
2023-01-07T22:23:58.985Z,7.34
2023-01-07T22:26:26.402Z,7.35
2023-01-07T22:28:59.478Z,7.27
2023-01-07T22:31:32.292Z,7.18
2023-01-07T22:34:00.370Z,7.28
2023-01-07T22:36:34.969Z,7.35
2023-01-07T22:39:10.455Z,7.39
2023-01-07T22:41:38.059Z,7.34
2023-01-07T22:44:16.786Z,7.36
2023-01-07T22:46:48.155Z,7.32
2023-01-07T22:49:17.171Z,7.21
2023-01-07T22:51:49.136Z,7.25
2023-01-07T22:54:17.701Z,7.28
2023-01-07T22:56:45.971Z,7.29
2023-01-07T22:59:13.686Z,7.21
2023-01-07T23:01:41.159Z,7.16
2023-01-07T23:04:09.431Z,7.19
2023-01-07T23:06:36.902Z,7.21
2023-01-07T23:09:05.130Z,7.01
2023-01-07T23:11:48.328Z,7.14
2023-01-07T23:14:21.740Z,7.09
2023-01-07T23:16:51.092Z,7.10
2023-01-07T23:19:21.202Z,7.20
2023-01-07T23:21:54.120Z,7.11
2023-01-07T23:24:23.644Z,7.17
2023-01-07T23:26:54.113Z,7.11
2023-01-07T23:29:22.348Z,7.10
2023-01-07T23:31:50.582Z,7.17
2023-01-07T23:34:19.443Z,7.17
2023-01-07T23:36:46.802Z,7.18
2023-01-07T23:39:14.482Z,7.10
2023-01-07T23:41:41.817Z,7.20
2023-01-07T23:44:09.612Z,7.07
2023-01-07T23:46:37.137Z,7.03
2023-01-07T23:49:04.996Z,6.99
2023-01-07T23:51:32.351Z,7.04
2023-01-07T23:54:00.015Z,6.86
2023-01-07T23:56:27.433Z,6.88
2023-01-07T23:58:55.115Z,6.80
